sensor_id;sensor_type;location;lat;lon;timestamp;P1;durP1;ratioP1;P2;durP2;ratioP2
37903;SDS011;23738;50.422;18.758;2023-12-20T00:02:15;12.10;;;8.10;;
37903;SDS011;23738;50.422;18.758;2023-12-20T00:04:45;10.10;;;8.80;;
37903;SDS011;23738;50.422;18.758;2023-12-20T00:07:15;12.70;;;9.30;;
37903;SDS011;23738;50.422;18.758;2023-12-20T00:09:46;13.00;;;10.00;;
37903;SDS011;23738;50.422;18.758;2023-12-20T00:12:16;14.70;;;9.70;;
37903;SDS011;23738;50.422;18.758;2023-12-20T00:14:45;14.60;;;9.20;;
37903;SDS011;23738;50.422;18.758;2023-12-20T00:17:16;14.20;;;10.10;;
37903;SDS011;23738;50.422;18.758;2023-12-20T00:19:46;11.80;;;9.00;;
37903;SDS011;23738;50.422;18.758;2023-12-20T00:22:15;13.30;;;8.90;;
37903;SDS011;23738;50.422;18.758;2023-12-20T00:24:45;13.40;;;9.60;;
37903;SDS011;23738;50.422;18.758;2023-12-20T00:27:16;11.60;;;9.30;;
37903;SDS011;23738;50.422;18.758;2023-12-20T00:29:45;11.90;;;9.50;;
37903;SDS011;23738;50.422;18.758;2023-12-20T00:32:16;12.10;;;9.60;;
37903;SDS011;23738;50.422;18.758;2023-12-20T00:34:47;10.30;;;8.60;;
37903;SDS011;23738;50.422;18.758;2023-12-20T00:37:17;12.90;;;10.40;;
37903;SDS011;23738;50.422;18.758;2023-12-20T00:39:47;14.40;;;10.40;;
37903;SDS011;23738;50.422;18.758;2023-12-20T00:42:17;12.40;;;10.10;;
37903;SDS011;23738;50.422;18.758;2023-12-20T00:44:47;12.90;;;10.20;;
37903;SDS011;23738;50.422;18.758;2023-12-20T00:47:17;15.50;;;9.90;;
37903;SDS011;23738;50.422;18.758;2023-12-20T00:49:47;11.30;;;8.90;;
37903;SDS011;23738;50.422;18.758;2023-12-20T00:52:17;13.40;;;9.60;;
37903;SDS011;23738;50.422;18.758;2023-12-20T00:54:49;14.20;;;10.10;;
37903;SDS011;23738;50.422;18.758;2023-12-20T00:57:19;15.90;;;11.00;;
37903;SDS011;23738;50.422;18.758;2023-12-20T00:59:49;14.20;;;10.80;;
37903;SDS011;23738;50.422;18.758;2023-12-20T01:02:19;14.70;;;11.00;;
37903;SDS011;23738;50.422;18.758;2023-12-20T01:04:49;12.80;;;11.00;;
37903;SDS011;23738;50.422;18.758;2023-12-20T01:07:19;17.70;;;11.00;;
37903;SDS011;23738;50.422;18.758;2023-12-20T01:09:48;12.70;;;10.40;;
37903;SDS011;23738;50.422;18.758;2023-12-20T01:12:18;14.50;;;10.90;;
37903;SDS011;23738;50.422;18.758;2023-12-20T01:14:48;12.70;;;9.80;;
37903;SDS011;23738;50.422;18.758;2023-12-20T01:17:19;23.20;;;14.30;;
37903;SDS011;23738;50.422;18.758;2023-12-20T01:19:49;18.10;;;13.40;;
37903;SDS011;23738;50.422;18.758;2023-12-20T01:22:19;20.30;;;14.00;;
37903;SDS011;23738;50.422;18.758;2023-12-20T01:24:48;18.10;;;13.00;;
37903;SDS011;23738;50.422;18.758;2023-12-20T01:27:18;20.40;;;14.10;;
37903;SDS011;23738;50.422;18.758;2023-12-20T01:29:48;18.70;;;13.80;;
37903;SDS011;23738;50.422;18.758;2023-12-20T01:32:18;19.80;;;13.40;;
37903;SDS011;23738;50.422;18.758;2023-12-20T01:34:48;22.10;;;13.30;;
37903;SDS011;23738;50.422;18.758;2023-12-20T01:37:19;17.50;;;11.40;;
37903;SDS011;23738;50.422;18.758;2023-12-20T01:39:50;15.90;;;11.60;;
37903;SDS011;23738;50.422;18.758;2023-12-20T01:42:20;17.60;;;13.20;;
37903;SDS011;23738;50.422;18.758;2023-12-20T01:44:50;16.80;;;12.50;;
37903;SDS011;23738;50.422;18.758;2023-12-20T01:47:20;16.60;;;13.30;;
37903;SDS011;23738;50.422;18.758;2023-12-20T01:49:50;14.60;;;11.50;;
37903;SDS011;23738;50.422;18.758;2023-12-20T01:52:20;15.90;;;12.70;;
37903;SDS011;23738;50.422;18.758;2023-12-20T01:54:51;16.50;;;11.40;;
37903;SDS011;23738;50.422;18.758;2023-12-20T01:57:23;14.70;;;11.20;;
37903;SDS011;23738;50.422;18.758;2023-12-20T01:59:53;15.00;;;11.40;;
37903;SDS011;23738;50.422;18.758;2023-12-20T02:02:24;14.00;;;11.30;;
37903;SDS011;23738;50.422;18.758;2023-12-20T02:04:57;15.10;;;11.10;;
37903;SDS011;23738;50.422;18.758;2023-12-20T02:07:28;12.50;;;11.20;;
37903;SDS011;23738;50.422;18.758;2023-12-20T02:09:59;14.70;;;11.60;;
37903;SDS011;23738;50.422;18.758;2023-12-20T02:12:30;13.90;;;11.90;;
37903;SDS011;23738;50.422;18.758;2023-12-20T02:15:01;13.60;;;12.30;;
37903;SDS011;23738;50.422;18.758;2023-12-20T02:17:31;13.40;;;10.90;;
37903;SDS011;23738;50.422;18.758;2023-12-20T02:20:01;13.50;;;10.50;;
37903;SDS011;23738;50.422;18.758;2023-12-20T02:22:32;16.20;;;11.60;;
37903;SDS011;23738;50.422;18.758;2023-12-20T02:25:02;12.00;;;10.10;;
37903;SDS011;23738;50.422;18.758;2023-12-20T02:27:32;14.90;;;11.60;;
37903;SDS011;23738;50.422;18.758;2023-12-20T02:30:02;13.90;;;11.50;;
37903;SDS011;23738;50.422;18.758;2023-12-20T02:32:33;13.70;;;12.30;;
37903;SDS011;23738;50.422;18.758;2023-12-20T02:35:03;15.90;;;14.30;;
37903;SDS011;23738;50.422;18.758;2023-12-20T02:37:34;17.90;;;14.70;;
37903;SDS011;23738;50.422;18.758;2023-12-20T02:40:04;16.40;;;13.10;;
37903;SDS011;23738;50.422;18.758;2023-12-20T02:42:35;18.80;;;14.10;;
37903;SDS011;23738;50.422;18.758;2023-12-20T02:45:05;15.00;;;12.60;;
37903;SDS011;23738;50.422;18.758;2023-12-20T02:47:36;16.10;;;13.50;;
37903;SDS011;23738;50.422;18.758;2023-12-20T02:50:06;23.50;;;15.50;;
37903;SDS011;23738;50.422;18.758;2023-12-20T02:52:36;19.30;;;16.20;;
37903;SDS011;23738;50.422;18.758;2023-12-20T02:55:06;20.40;;;15.60;;
37903;SDS011;23738;50.422;18.758;2023-12-20T02:57:36;26.10;;;17.30;;
37903;SDS011;23738;50.422;18.758;2023-12-20T03:00:10;25.20;;;15.60;;
37903;SDS011;23738;50.422;18.758;2023-12-20T03:02:41;19.90;;;13.40;;
37903;SDS011;23738;50.422;18.758;2023-12-20T03:05:10;24.70;;;15.10;;
37903;SDS011;23738;50.422;18.758;2023-12-20T03:07:40;16.10;;;14.00;;
37903;SDS011;23738;50.422;18.758;2023-12-20T03:10:10;20.90;;;14.90;;
37903;SDS011;23738;50.422;18.758;2023-12-20T03:12:40;22.00;;;15.80;;
37903;SDS011;23738;50.422;18.758;2023-12-20T03:15:11;18.50;;;16.30;;
37903;SDS011;23738;50.422;18.758;2023-12-20T03:17:42;19.80;;;14.80;;
37903;SDS011;23738;50.422;18.758;2023-12-20T03:20:12;15.70;;;12.40;;
37903;SDS011;23738;50.422;18.758;2023-12-20T03:22:42;15.50;;;11.40;;
37903;SDS011;23738;50.422;18.758;2023-12-20T03:25:12;15.50;;;12.10;;
37903;SDS011;23738;50.422;18.758;2023-12-20T03:27:42;14.70;;;12.50;;
37903;SDS011;23738;50.422;18.758;2023-12-20T03:30:12;14.10;;;12.50;;
37903;SDS011;23738;50.422;18.758;2023-12-20T03:32:43;13.70;;;12.30;;
37903;SDS011;23738;50.422;18.758;2023-12-20T03:35:14;14.80;;;12.10;;
37903;SDS011;23738;50.422;18.758;2023-12-20T03:37:44;15.70;;;12.50;;
37903;SDS011;23738;50.422;18.758;2023-12-20T03:40:15;14.90;;;11.60;;
37903;SDS011;23738;50.422;18.758;2023-12-20T03:42:45;12.30;;;11.00;;
37903;SDS011;23738;50.422;18.758;2023-12-20T03:45:16;11.90;;;10.20;;
37903;SDS011;23738;50.422;18.758;2023-12-20T03:47:45;12.20;;;10.90;;
37903;SDS011;23738;50.422;18.758;2023-12-20T03:50:16;13.90;;;11.30;;
37903;SDS011;23738;50.422;18.758;2023-12-20T03:52:46;13.90;;;11.30;;
37903;SDS011;23738;50.422;18.758;2023-12-20T03:55:18;11.90;;;10.60;;
37903;SDS011;23738;50.422;18.758;2023-12-20T03:57:47;15.70;;;12.10;;
37903;SDS011;23738;50.422;18.758;2023-12-20T04:00:18;15.30;;;11.50;;
37903;SDS011;23738;50.422;18.758;2023-12-20T04:02:49;11.80;;;10.40;;
37903;SDS011;23738;50.422;18.758;2023-12-20T04:05:19;11.60;;;10.30;;
37903;SDS011;23738;50.422;18.758;2023-12-20T04:07:52;11.50;;;10.30;;
37903;SDS011;23738;50.422;18.758;2023-12-20T04:10:22;15.70;;;12.40;;
37903;SDS011;23738;50.422;18.758;2023-12-20T04:12:53;12.70;;;11.30;;
37903;SDS011;23738;50.422;18.758;2023-12-20T04:15:23;14.70;;;12.90;;
37903;SDS011;23738;50.422;18.758;2023-12-20T04:17:53;13.40;;;11.70;;
37903;SDS011;23738;50.422;18.758;2023-12-20T04:20:23;14.60;;;12.30;;
37903;SDS011;23738;50.422;18.758;2023-12-20T04:22:55;16.40;;;12.50;;
37903;SDS011;23738;50.422;18.758;2023-12-20T04:25:32;16.30;;;12.20;;
37903;SDS011;23738;50.422;18.758;2023-12-20T04:28:05;17.40;;;13.40;;
37903;SDS011;23738;50.422;18.758;2023-12-20T04:30:39;23.20;;;14.40;;
37903;SDS011;23738;50.422;18.758;2023-12-20T04:33:14;17.10;;;13.30;;
37903;SDS011;23738;50.422;18.758;2023-12-20T04:35:45;20.80;;;14.30;;
37903;SDS011;23738;50.422;18.758;2023-12-20T04:38:15;18.50;;;14.70;;
37903;SDS011;23738;50.422;18.758;2023-12-20T04:40:45;23.10;;;14.80;;
37903;SDS011;23738;50.422;18.758;2023-12-20T04:43:15;19.50;;;13.20;;
37903;SDS011;23738;50.422;18.758;2023-12-20T04:45:45;19.20;;;12.90;;
37903;SDS011;23738;50.422;18.758;2023-12-20T04:48:15;26.20;;;12.10;;
37903;SDS011;23738;50.422;18.758;2023-12-20T04:50:45;15.10;;;11.50;;
37903;SDS011;23738;50.422;18.758;2023-12-20T04:53:16;15.30;;;12.40;;
37903;SDS011;23738;50.422;18.758;2023-12-20T04:55:46;14.80;;;12.30;;
37903;SDS011;23738;50.422;18.758;2023-12-20T04:58:16;13.80;;;11.20;;
37903;SDS011;23738;50.422;18.758;2023-12-20T05:00:46;16.20;;;10.80;;
37903;SDS011;23738;50.422;18.758;2023-12-20T05:03:15;14.20;;;10.40;;
37903;SDS011;23738;50.422;18.758;2023-12-20T05:05:45;15.70;;;11.40;;
37903;SDS011;23738;50.422;18.758;2023-12-20T05:08:15;11.60;;;9.80;;
37903;SDS011;23738;50.422;18.758;2023-12-20T05:10:46;15.00;;;10.40;;
37903;SDS011;23738;50.422;18.758;2023-12-20T05:13:17;15.60;;;10.70;;
37903;SDS011;23738;50.422;18.758;2023-12-20T05:15:47;12.00;;;10.00;;
37903;SDS011;23738;50.422;18.758;2023-12-20T05:18:17;16.00;;;10.80;;
37903;SDS011;23738;50.422;18.758;2023-12-20T05:20:49;10.70;;;9.30;;
37903;SDS011;23738;50.422;18.758;2023-12-20T05:23:19;11.50;;;9.70;;
37903;SDS011;23738;50.422;18.758;2023-12-20T05:25:49;12.20;;;8.80;;
37903;SDS011;23738;50.422;18.758;2023-12-20T05:28:19;9.50;;;8.20;;
37903;SDS011;23738;50.422;18.758;2023-12-20T05:30:49;12.00;;;9.60;;
37903;SDS011;23738;50.422;18.758;2023-12-20T05:33:19;14.30;;;9.90;;
37903;SDS011;23738;50.422;18.758;2023-12-20T05:35:49;14.40;;;10.70;;
37903;SDS011;23738;50.422;18.758;2023-12-20T05:38:19;11.70;;;10.10;;
37903;SDS011;23738;50.422;18.758;2023-12-20T05:40:49;14.40;;;10.30;;
37903;SDS011;23738;50.422;18.758;2023-12-20T05:43:19;11.10;;;9.30;;
37903;SDS011;23738;50.422;18.758;2023-12-20T05:45:49;11.80;;;9.40;;
37903;SDS011;23738;50.422;18.758;2023-12-20T05:48:19;11.30;;;9.50;;
37903;SDS011;23738;50.422;18.758;2023-12-20T05:50:49;12.90;;;10.70;;
37903;SDS011;23738;50.422;18.758;2023-12-20T05:53:19;12.00;;;9.40;;
37903;SDS011;23738;50.422;18.758;2023-12-20T05:55:49;11.20;;;10.00;;
37903;SDS011;23738;50.422;18.758;2023-12-20T05:58:19;14.40;;;10.50;;
37903;SDS011;23738;50.422;18.758;2023-12-20T06:00:49;12.10;;;9.90;;
37903;SDS011;23738;50.422;18.758;2023-12-20T06:03:19;16.90;;;10.20;;
37903;SDS011;23738;50.422;18.758;2023-12-20T06:05:49;11.80;;;9.80;;
37903;SDS011;23738;50.422;18.758;2023-12-20T06:08:19;13.80;;;9.70;;
37903;SDS011;23738;50.422;18.758;2023-12-20T06:10:49;11.10;;;9.90;;
37903;SDS011;23738;50.422;18.758;2023-12-20T06:13:19;15.90;;;12.60;;
37903;SDS011;23738;50.422;18.758;2023-12-20T06:15:50;23.60;;;13.90;;
37903;SDS011;23738;50.422;18.758;2023-12-20T06:18:23;16.20;;;11.70;;
37903;SDS011;23738;50.422;18.758;2023-12-20T06:20:54;13.30;;;9.20;;
37903;SDS011;23738;50.422;18.758;2023-12-20T06:23:25;11.60;;;9.70;;
37903;SDS011;23738;50.422;18.758;2023-12-20T06:25:58;12.10;;;9.90;;
37903;SDS011;23738;50.422;18.758;2023-12-20T06:28:27;14.70;;;10.00;;
37903;SDS011;23738;50.422;18.758;2023-12-20T06:30:57;12.40;;;10.30;;
37903;SDS011;23738;50.422;18.758;2023-12-20T06:33:27;11.30;;;9.60;;
37903;SDS011;23738;50.422;18.758;2023-12-20T06:35:58;12.90;;;10.50;;
37903;SDS011;23738;50.422;18.758;2023-12-20T06:38:28;12.00;;;9.40;;
37903;SDS011;23738;50.422;18.758;2023-12-20T06:40:57;13.80;;;8.30;;
37903;SDS011;23738;50.422;18.758;2023-12-20T06:43:27;12.40;;;9.20;;
37903;SDS011;23738;50.422;18.758;2023-12-20T06:45:57;13.00;;;8.70;;
37903;SDS011;23738;50.422;18.758;2023-12-20T06:48:28;14.00;;;10.30;;
37903;SDS011;23738;50.422;18.758;2023-12-20T06:50:59;11.60;;;10.20;;
37903;SDS011;23738;50.422;18.758;2023-12-20T06:53:29;12.00;;;9.90;;
37903;SDS011;23738;50.422;18.758;2023-12-20T06:56:00;9.90;;;8.70;;
37903;SDS011;23738;50.422;18.758;2023-12-20T06:58:30;12.80;;;10.00;;
37903;SDS011;23738;50.422;18.758;2023-12-20T07:01:00;10.20;;;8.80;;
37903;SDS011;23738;50.422;18.758;2023-12-20T07:03:31;13.60;;;10.20;;
37903;SDS011;23738;50.422;18.758;2023-12-20T07:06:00;15.20;;;9.90;;
37903;SDS011;23738;50.422;18.758;2023-12-20T07:08:32;13.40;;;10.30;;
37903;SDS011;23738;50.422;18.758;2023-12-20T07:11:02;12.30;;;10.50;;
37903;SDS011;23738;50.422;18.758;2023-12-20T07:13:32;18.60;;;12.20;;
37903;SDS011;23738;50.422;18.758;2023-12-20T07:16:03;12.40;;;9.90;;
37903;SDS011;23738;50.422;18.758;2023-12-20T07:18:33;13.00;;;9.60;;
37903;SDS011;23738;50.422;18.758;2023-12-20T07:21:04;11.20;;;9.70;;
37903;SDS011;23738;50.422;18.758;2023-12-20T07:23:36;17.60;;;11.70;;
37903;SDS011;23738;50.422;18.758;2023-12-20T07:26:07;18.40;;;11.20;;
37903;SDS011;23738;50.422;18.758;2023-12-20T07:28:38;13.80;;;10.90;;
37903;SDS011;23738;50.422;18.758;2023-12-20T07:31:08;13.90;;;10.80;;
37903;SDS011;23738;50.422;18.758;2023-12-20T07:33:38;15.30;;;10.40;;
37903;SDS011;23738;50.422;18.758;2023-12-20T07:36:08;14.60;;;10.80;;
37903;SDS011;23738;50.422;18.758;2023-12-20T07:38:39;12.10;;;9.90;;
37903;SDS011;23738;50.422;18.758;2023-12-20T07:41:11;13.30;;;11.70;;
37903;SDS011;23738;50.422;18.758;2023-12-20T07:43:42;23.00;;;13.90;;
37903;SDS011;23738;50.422;18.758;2023-12-20T07:46:13;15.50;;;11.50;;
37903;SDS011;23738;50.422;18.758;2023-12-20T07:48:42;13.40;;;11.00;;
37903;SDS011;23738;50.422;18.758;2023-12-20T07:51:13;15.90;;;10.80;;
37903;SDS011;23738;50.422;18.758;2023-12-20T07:53:44;14.60;;;10.70;;
37903;SDS011;23738;50.422;18.758;2023-12-20T07:56:15;12.50;;;9.80;;
37903;SDS011;23738;50.422;18.758;2023-12-20T07:58:45;13.30;;;11.10;;
37903;SDS011;23738;50.422;18.758;2023-12-20T08:01:16;16.40;;;12.20;;
37903;SDS011;23738;50.422;18.758;2023-12-20T08:03:47;13.40;;;10.60;;
37903;SDS011;23738;50.422;18.758;2023-12-20T08:06:18;11.10;;;9.40;;
37903;SDS011;23738;50.422;18.758;2023-12-20T08:08:48;10.40;;;9.30;;
37903;SDS011;23738;50.422;18.758;2023-12-20T08:11:18;14.80;;;10.10;;
37903;SDS011;23738;50.422;18.758;2023-12-20T08:13:49;13.90;;;9.80;;
37903;SDS011;23738;50.422;18.758;2023-12-20T08:16:19;11.10;;;9.70;;
37903;SDS011;23738;50.422;18.758;2023-12-20T08:18:51;12.20;;;10.80;;
37903;SDS011;23738;50.422;18.758;2023-12-20T08:21:21;18.70;;;13.00;;
37903;SDS011;23738;50.422;18.758;2023-12-20T08:23:51;20.30;;;13.00;;
37903;SDS011;23738;50.422;18.758;2023-12-20T08:26:21;23.90;;;14.10;;
37903;SDS011;23738;50.422;18.758;2023-12-20T08:28:51;24.20;;;13.70;;
37903;SDS011;23738;50.422;18.758;2023-12-20T08:31:21;23.50;;;14.10;;
37903;SDS011;23738;50.422;18.758;2023-12-20T08:33:51;28.20;;;15.10;;
37903;SDS011;23738;50.422;18.758;2023-12-20T08:36:21;20.90;;;13.80;;
37903;SDS011;23738;50.422;18.758;2023-12-20T08:38:50;16.80;;;12.90;;
37903;SDS011;23738;50.422;18.758;2023-12-20T08:41:22;20.90;;;12.50;;
37903;SDS011;23738;50.422;18.758;2023-12-20T08:43:52;17.00;;;12.00;;
37903;SDS011;23738;50.422;18.758;2023-12-20T08:46:22;15.30;;;11.80;;
37903;SDS011;23738;50.422;18.758;2023-12-20T08:48:52;18.40;;;13.50;;
37903;SDS011;23738;50.422;18.758;2023-12-20T08:51:22;21.10;;;13.40;;
37903;SDS011;23738;50.422;18.758;2023-12-20T08:53:52;26.60;;;15.10;;
37903;SDS011;23738;50.422;18.758;2023-12-20T08:56:22;17.40;;;13.40;;
37903;SDS011;23738;50.422;18.758;2023-12-20T08:58:52;15.10;;;12.60;;
37903;SDS011;23738;50.422;18.758;2023-12-20T09:01:22;15.50;;;12.30;;
37903;SDS011;23738;50.422;18.758;2023-12-20T09:03:52;19.70;;;13.70;;
37903;SDS011;23738;50.422;18.758;2023-12-20T09:06:22;16.40;;;13.80;;
37903;SDS011;23738;50.422;18.758;2023-12-20T09:08:52;21.20;;;14.40;;
37903;SDS011;23738;50.422;18.758;2023-12-20T09:11:22;24.50;;;15.30;;
37903;SDS011;23738;50.422;18.758;2023-12-20T09:13:54;21.40;;;14.00;;
37903;SDS011;23738;50.422;18.758;2023-12-20T09:16:23;28.70;;;15.60;;
37903;SDS011;23738;50.422;18.758;2023-12-20T09:18:53;15.20;;;12.70;;
37903;SDS011;23738;50.422;18.758;2023-12-20T09:21:23;19.50;;;14.30;;
37903;SDS011;23738;50.422;18.758;2023-12-20T09:23:53;16.70;;;13.40;;
37903;SDS011;23738;50.422;18.758;2023-12-20T09:26:23;17.90;;;14.10;;
37903;SDS011;23738;50.422;18.758;2023-12-20T09:28:53;18.60;;;14.00;;
37903;SDS011;23738;50.422;18.758;2023-12-20T09:31:24;24.20;;;15.50;;
37903;SDS011;23738;50.422;18.758;2023-12-20T09:33:54;16.30;;;14.40;;
37903;SDS011;23738;50.422;18.758;2023-12-20T09:36:23;17.40;;;14.00;;
37903;SDS011;23738;50.422;18.758;2023-12-20T09:38:53;17.10;;;13.70;;
37903;SDS011;23738;50.422;18.758;2023-12-20T09:41:24;16.80;;;13.90;;
37903;SDS011;23738;50.422;18.758;2023-12-20T09:43:56;19.00;;;14.70;;
37903;SDS011;23738;50.422;18.758;2023-12-20T09:46:32;18.40;;;14.80;;
37903;SDS011;23738;50.422;18.758;2023-12-20T09:49:03;20.90;;;15.10;;
37903;SDS011;23738;50.422;18.758;2023-12-20T09:51:34;16.80;;;13.80;;
37903;SDS011;23738;50.422;18.758;2023-12-20T09:54:04;17.40;;;12.30;;
37903;SDS011;23738;50.422;18.758;2023-12-20T09:56:34;16.60;;;13.10;;
37903;SDS011;23738;50.422;18.758;2023-12-20T09:59:05;21.80;;;15.70;;
37903;SDS011;23738;50.422;18.758;2023-12-20T10:01:35;18.70;;;14.50;;
37903;SDS011;23738;50.422;18.758;2023-12-20T10:04:06;19.10;;;15.00;;
37903;SDS011;23738;50.422;18.758;2023-12-20T10:06:39;23.40;;;15.30;;
37903;SDS011;23738;50.422;18.758;2023-12-20T10:09:09;20.00;;;13.70;;
37903;SDS011;23738;50.422;18.758;2023-12-20T10:11:41;16.10;;;13.90;;
37903;SDS011;23738;50.422;18.758;2023-12-20T10:14:10;18.60;;;14.20;;
37903;SDS011;23738;50.422;18.758;2023-12-20T10:16:41;16.60;;;14.60;;
37903;SDS011;23738;50.422;18.758;2023-12-20T10:19:10;17.20;;;15.40;;
37903;SDS011;23738;50.422;18.758;2023-12-20T10:21:45;17.60;;;14.60;;
37903;SDS011;23738;50.422;18.758;2023-12-20T10:24:18;16.40;;;14.40;;
37903;SDS011;23738;50.422;18.758;2023-12-20T10:26:48;20.50;;;16.10;;
37903;SDS011;23738;50.422;18.758;2023-12-20T10:29:28;17.30;;;14.90;;
37903;SDS011;23738;50.422;18.758;2023-12-20T10:32:01;15.20;;;13.50;;
37903;SDS011;23738;50.422;18.758;2023-12-20T10:34:51;15.20;;;12.80;;
37903;SDS011;23738;50.422;18.758;2023-12-20T10:37:22;15.60;;;13.60;;
37903;SDS011;23738;50.422;18.758;2023-12-20T10:39:53;14.90;;;12.10;;
37903;SDS011;23738;50.422;18.758;2023-12-20T10:42:24;15.90;;;13.50;;
37903;SDS011;23738;50.422;18.758;2023-12-20T10:44:54;18.30;;;13.40;;
37903;SDS011;23738;50.422;18.758;2023-12-20T10:47:24;16.70;;;12.80;;
37903;SDS011;23738;50.422;18.758;2023-12-20T10:49:55;13.30;;;11.70;;
37903;SDS011;23738;50.422;18.758;2023-12-20T10:52:27;14.20;;;12.70;;
37903;SDS011;23738;50.422;18.758;2023-12-20T10:54:59;14.50;;;13.00;;
37903;SDS011;23738;50.422;18.758;2023-12-20T10:57:30;16.30;;;12.00;;
37903;SDS011;23738;50.422;18.758;2023-12-20T11:00:01;15.20;;;13.30;;
37903;SDS011;23738;50.422;18.758;2023-12-20T11:02:36;14.20;;;12.70;;
37903;SDS011;23738;50.422;18.758;2023-12-20T11:05:13;16.00;;;13.10;;
37903;SDS011;23738;50.422;18.758;2023-12-20T11:07:52;16.80;;;11.60;;
37903;SDS011;23738;50.422;18.758;2023-12-20T11:10:31;15.50;;;11.30;;
37903;SDS011;23738;50.422;18.758;2023-12-20T11:13:08;12.90;;;11.60;;
37903;SDS011;23738;50.422;18.758;2023-12-20T11:15:44;14.00;;;11.30;;
37903;SDS011;23738;50.422;18.758;2023-12-20T11:18:15;11.80;;;10.60;;
37903;SDS011;23738;50.422;18.758;2023-12-20T11:20:45;13.10;;;11.80;;
37903;SDS011;23738;50.422;18.758;2023-12-20T11:23:16;15.60;;;12.20;;
37903;SDS011;23738;50.422;18.758;2023-12-20T11:25:51;11.90;;;10.40;;
37903;SDS011;23738;50.422;18.758;2023-12-20T11:28:25;11.60;;;10.40;;
37903;SDS011;23738;50.422;18.758;2023-12-20T11:30:57;11.80;;;10.50;;
37903;SDS011;23738;50.422;18.758;2023-12-20T11:33:29;11.10;;;9.80;;
37903;SDS011;23738;50.422;18.758;2023-12-20T11:36:03;17.70;;;12.40;;
37903;SDS011;23738;50.422;18.758;2023-12-20T11:38:40;11.50;;;9.60;;
37903;SDS011;23738;50.422;18.758;2023-12-20T11:41:24;11.80;;;9.20;;
37903;SDS011;23738;50.422;18.758;2023-12-20T11:43:55;11.30;;;8.70;;
37903;SDS011;23738;50.422;18.758;2023-12-20T11:46:25;10.30;;;8.70;;
37903;SDS011;23738;50.422;18.758;2023-12-20T11:48:55;14.50;;;10.20;;
37903;SDS011;23738;50.422;18.758;2023-12-20T11:51:27;11.00;;;9.20;;
37903;SDS011;23738;50.422;18.758;2023-12-20T11:53:57;14.60;;;10.70;;
37903;SDS011;23738;50.422;18.758;2023-12-20T11:56:27;13.90;;;11.30;;
37903;SDS011;23738;50.422;18.758;2023-12-20T11:58:58;20.10;;;10.60;;
37903;SDS011;23738;50.422;18.758;2023-12-20T12:01:28;12.60;;;10.10;;
37903;SDS011;23738;50.422;18.758;2023-12-20T12:04:05;12.50;;;9.50;;
37903;SDS011;23738;50.422;18.758;2023-12-20T12:06:35;10.90;;;7.10;;
37903;SDS011;23738;50.422;18.758;2023-12-20T12:09:04;8.30;;;6.40;;
37903;SDS011;23738;50.422;18.758;2023-12-20T12:11:34;10.00;;;7.50;;
37903;SDS011;23738;50.422;18.758;2023-12-20T12:14:04;10.80;;;8.00;;
37903;SDS011;23738;50.422;18.758;2023-12-20T12:16:34;13.40;;;9.80;;
37903;SDS011;23738;50.422;18.758;2023-12-20T12:19:05;9.10;;;8.10;;
37903;SDS011;23738;50.422;18.758;2023-12-20T12:21:35;11.60;;;8.50;;
37903;SDS011;23738;50.422;18.758;2023-12-20T12:24:08;11.00;;;8.70;;
37903;SDS011;23738;50.422;18.758;2023-12-20T12:26:39;11.50;;;8.90;;
37903;SDS011;23738;50.422;18.758;2023-12-20T12:29:09;9.70;;;7.90;;
37903;SDS011;23738;50.422;18.758;2023-12-20T12:31:39;11.40;;;8.60;;
37903;SDS011;23738;50.422;18.758;2023-12-20T12:34:09;11.20;;;8.20;;
37903;SDS011;23738;50.422;18.758;2023-12-20T12:36:39;9.80;;;8.00;;
37903;SDS011;23738;50.422;18.758;2023-12-20T12:39:09;11.40;;;9.10;;
37903;SDS011;23738;50.422;18.758;2023-12-20T12:41:42;11.20;;;9.10;;
37903;SDS011;23738;50.422;18.758;2023-12-20T12:44:13;8.90;;;7.90;;
37903;SDS011;23738;50.422;18.758;2023-12-20T12:46:42;9.80;;;7.70;;
37903;SDS011;23738;50.422;18.758;2023-12-20T12:49:12;9.40;;;8.20;;
37903;SDS011;23738;50.422;18.758;2023-12-20T12:51:42;10.90;;;7.20;;
37903;SDS011;23738;50.422;18.758;2023-12-20T12:54:13;10.10;;;8.10;;
37903;SDS011;23738;50.422;18.758;2023-12-20T12:56:44;9.70;;;7.70;;
37903;SDS011;23738;50.422;18.758;2023-12-20T12:59:17;14.40;;;9.00;;
37903;SDS011;23738;50.422;18.758;2023-12-20T13:01:47;11.30;;;8.90;;
37903;SDS011;23738;50.422;18.758;2023-12-20T13:04:16;14.90;;;9.60;;
37903;SDS011;23738;50.422;18.758;2023-12-20T13:06:46;12.70;;;10.60;;
37903;SDS011;23738;50.422;18.758;2023-12-20T13:09:16;56.70;;;23.80;;
37903;SDS011;23738;50.422;18.758;2023-12-20T13:11:46;29.00;;;16.20;;
37903;SDS011;23738;50.422;18.758;2023-12-20T13:14:16;11.50;;;7.00;;
37903;SDS011;23738;50.422;18.758;2023-12-20T13:16:45;13.10;;;7.70;;
37903;SDS011;23738;50.422;18.758;2023-12-20T13:19:15;10.30;;;8.00;;
37903;SDS011;23738;50.422;18.758;2023-12-20T13:21:45;11.40;;;7.80;;
37903;SDS011;23738;50.422;18.758;2023-12-20T13:24:15;12.30;;;9.60;;
37903;SDS011;23738;50.422;18.758;2023-12-20T13:26:45;11.50;;;8.50;;
37903;SDS011;23738;50.422;18.758;2023-12-20T13:29:18;9.10;;;8.00;;
37903;SDS011;23738;50.422;18.758;2023-12-20T13:31:48;9.00;;;7.40;;
37903;SDS011;23738;50.422;18.758;2023-12-20T13:34:18;11.10;;;7.60;;
37903;SDS011;23738;50.422;18.758;2023-12-20T13:36:48;9.80;;;8.20;;
37903;SDS011;23738;50.422;18.758;2023-12-20T13:39:19;17.00;;;11.70;;
37903;SDS011;23738;50.422;18.758;2023-12-20T13:41:49;17.90;;;8.90;;
37903;SDS011;23738;50.422;18.758;2023-12-20T13:44:20;10.60;;;8.30;;
37903;SDS011;23738;50.422;18.758;2023-12-20T13:46:50;10.90;;;9.00;;
37903;SDS011;23738;50.422;18.758;2023-12-20T13:49:20;12.00;;;9.80;;
37903;SDS011;23738;50.422;18.758;2023-12-20T13:51:52;16.20;;;12.20;;
37903;SDS011;23738;50.422;18.758;2023-12-20T13:54:24;14.60;;;10.20;;
37903;SDS011;23738;50.422;18.758;2023-12-20T13:56:54;14.00;;;9.80;;
37903;SDS011;23738;50.422;18.758;2023-12-20T13:59:24;18.60;;;11.90;;
37903;SDS011;23738;50.422;18.758;2023-12-20T14:01:54;33.50;;;18.10;;
37903;SDS011;23738;50.422;18.758;2023-12-20T14:04:25;32.00;;;15.60;;
37903;SDS011;23738;50.422;18.758;2023-12-20T14:06:55;14.10;;;9.80;;
37903;SDS011;23738;50.422;18.758;2023-12-20T14:09:25;8.00;;;6.00;;
37903;SDS011;23738;50.422;18.758;2023-12-20T14:11:55;8.50;;;5.50;;
37903;SDS011;23738;50.422;18.758;2023-12-20T14:14:27;12.70;;;7.40;;
37903;SDS011;23738;50.422;18.758;2023-12-20T14:16:57;6.70;;;5.20;;
37903;SDS011;23738;50.422;18.758;2023-12-20T14:19:27;7.60;;;5.20;;
37903;SDS011;23738;50.422;18.758;2023-12-20T14:21:57;9.20;;;7.10;;
37903;SDS011;23738;50.422;18.758;2023-12-20T14:24:29;10.30;;;7.20;;
37903;SDS011;23738;50.422;18.758;2023-12-20T14:26:59;16.30;;;11.50;;
37903;SDS011;23738;50.422;18.758;2023-12-20T14:29:29;18.40;;;12.40;;
37903;SDS011;23738;50.422;18.758;2023-12-20T14:31:59;14.60;;;10.10;;
37903;SDS011;23738;50.422;18.758;2023-12-20T14:34:31;15.00;;;10.90;;